KLGF/LGF METAR and TAF weather

Enter ICAO airport designator
Station Type Date Time Source
KLGF METAR 2022/01/26 06:58 UTC NOAA

KLGF 260658Z AUTO 05006KT 10SM CLR 13/M09 A3006 RMK AO2 SLP179 T01261086 402250066 $


Station Type Date Time Source
KLGF Decoded METAR 2022/01/26 06:58 UTC NOAA

Station name not available
Jan 26, 2022 - 01:58 AM EST / 2022.01.26 0658 UTC
Wind: from the NE (050 degrees) at 7 MPH (6 KT):0
Visibility: 10 mile(s):0
Sky conditions: clear
Temperature: 54.7 F (12.6 C)
Dew Point: 16.5 F (-8.6 C)
Relative Humidity: 21%
Pressure (altimeter): 30.06 in. Hg (1017 hPa)
ob: KLGF 260658Z AUTO 05006KT 10SM CLR 13/M09 A3006 RMK AO2 SLP179 T01261086 402250066
cycle: 7

Station Type Date Time Source
KLGF TAF UTC NOAA

Error!

Example: see airport list